createdAt,value
2018-07-20T00:00:41.499Z,53.32
2018-07-20T00:01:41.486Z,54.22
2018-07-20T00:02:41.530Z,54.52
2018-07-20T00:03:41.463Z,54.52
2018-07-20T00:04:41.460Z,54.32
2018-07-20T00:05:41.445Z,54.22
2018-07-20T00:06:42.204Z,54.75
2018-07-20T00:07:41.481Z,55.05
2018-07-20T00:08:41.411Z,54.55
2018-07-20T00:09:41.404Z,54.65
2018-07-20T00:10:41.386Z,54.35
2018-07-20T00:11:42.208Z,54.45
2018-07-20T00:12:41.428Z,54.55
2018-07-20T00:13:41.356Z,54.35
2018-07-20T00:14:41.344Z,54.55
2018-07-20T00:15:41.334Z,54.55
2018-07-20T00:16:41.338Z,55.05
2018-07-20T00:17:41.372Z,54.75
2018-07-20T00:18:41.306Z,54.75
2018-07-20T00:19:41.292Z,55.78
2018-07-20T00:20:41.298Z,55.38
2018-07-20T00:21:41.270Z,55.58
2018-07-20T00:22:41.317Z,55.58
2018-07-20T00:23:41.250Z,54.97
2018-07-20T00:24:41.234Z,54.68
2018-07-20T00:25:41.223Z,55.15
2018-07-20T00:26:41.216Z,54.88
2018-07-20T00:27:41.773Z,55.18
2018-07-20T00:28:41.195Z,55.38
2018-07-20T00:29:41.184Z,55.47
2018-07-20T00:30:41.174Z,55.28
2018-07-20T00:31:41.165Z,56.08
2018-07-20T00:32:41.225Z,55.98
2018-07-20T00:33:41.140Z,55.98
2018-07-20T00:34:41.132Z,56.08
2018-07-20T00:35:41.123Z,56.18
2018-07-20T00:36:41.109Z,56.41
2018-07-20T00:37:41.157Z,56.41
2018-07-20T00:38:41.088Z,56.21
2018-07-20T00:39:41.085Z,56.93
2018-07-20T00:40:41.068Z,57.34
2018-07-20T00:41:41.054Z,56.51
2018-07-20T00:42:41.107Z,57.41
2018-07-20T00:43:41.032Z,56.74
2018-07-20T00:44:41.022Z,57.51
2018-07-20T00:45:41.010Z,57.54
2018-07-20T00:46:41.002Z,57.44
2018-07-20T00:47:41.051Z,57.94
2018-07-20T00:48:41.703Z,57.44
2018-07-20T00:49:40.968Z,58.54
2018-07-20T00:50:40.961Z,58.24
2018-07-20T00:51:40.960Z,58.24
2018-07-20T00:52:40.997Z,58.24
2018-07-20T00:53:40.928Z,57.74
2018-07-20T00:54:40.916Z,57.74
2018-07-20T00:55:40.903Z,58.57
2018-07-20T00:56:40.891Z,58.07
2018-07-20T00:57:40.941Z,57.74
2018-07-20T00:58:40.871Z,57.06
2018-07-20T00:59:40.861Z,58.17
2018-07-20T01:00:40.847Z,57.87
2018-07-20T01:01:40.847Z,58.57
2018-07-20T01:02:40.891Z,58.47
2018-07-20T01:03:40.819Z,57.97
2018-07-20T01:04:40.805Z,58.37
2018-07-20T01:05:40.795Z,58.67
2018-07-20T01:06:40.783Z,59.17
2018-07-20T01:07:40.833Z,58.87
2018-07-20T01:08:40.764Z,58.70
2018-07-20T01:09:41.704Z,59.17
2018-07-20T01:10:40.743Z,59.20
2018-07-20T01:11:40.733Z,59.20
2018-07-20T01:12:40.781Z,59.50
2018-07-20T01:13:40.710Z,59.70
2018-07-20T01:14:40.700Z,59.80
2018-07-20T01:15:40.687Z,59.30
2018-07-20T01:16:40.690Z,59.70
2018-07-20T01:17:40.728Z,59.70
2018-07-20T01:18:40.652Z,59.91
2018-07-20T01:19:40.648Z,60.31
2018-07-20T01:20:40.640Z,60.31
2018-07-20T01:21:40.620Z,60.11
2018-07-20T01:22:40.670Z,59.41
2018-07-20T01:23:40.598Z,59.91
2018-07-20T01:24:40.587Z,60.31
2018-07-20T01:25:40.578Z,60.00
2018-07-20T01:26:40.567Z,60.41
2018-07-20T01:27:40.617Z,60.33
2018-07-20T01:28:40.548Z,59.50
2018-07-20T01:29:40.537Z,59.94
2018-07-20T01:30:41.196Z,60.24
2018-07-20T01:31:40.515Z,60.64
2018-07-20T01:32:40.562Z,60.44
2018-07-20T01:33:40.490Z,60.53
2018-07-20T01:34:40.478Z,60.64
2018-07-20T01:35:40.471Z,61.04
2018-07-20T01:36:40.457Z,61.04
2018-07-20T01:37:40.506Z,61.14
2018-07-20T01:38:40.437Z,60.94
2018-07-20T01:39:40.429Z,61.44
2018-07-20T01:40:40.413Z,61.17
2018-07-20T01:41:40.404Z,61.77
2018-07-20T01:42:40.465Z,61.04
2018-07-20T01:43:40.379Z,62.38
2018-07-20T01:44:40.367Z,61.67
2018-07-20T01:45:40.359Z,61.87
2018-07-20T01:46:40.346Z,61.77
2018-07-20T01:47:40.337Z,61.87
2018-07-20T01:48:40.385Z,61.60
2018-07-20T01:49:40.315Z,62.48
2018-07-20T01:50:40.304Z,61.67
2018-07-20T01:51:42.207Z,62.58
2018-07-20T01:52:40.282Z,61.67
2018-07-20T01:53:40.340Z,61.67
2018-07-20T01:54:40.260Z,62.91
2018-07-20T01:55:40.251Z,61.77
2018-07-20T01:56:40.237Z,61.67
2018-07-20T01:57:40.230Z,62.38
2018-07-20T01:58:40.274Z,61.67
2018-07-20T01:59:40.210Z,61.67
2018-07-20T02:00:40.193Z,61.87
2018-07-20T02:01:40.182Z,61.67
2018-07-20T02:02:40.172Z,62.78
2018-07-20T02:03:40.219Z,62.27
2018-07-20T02:04:40.149Z,62.68
2018-07-20T02:05:40.144Z,62.10
2018-07-20T02:06:40.131Z,62.41
2018-07-20T02:07:40.119Z,62.30
2018-07-20T02:08:40.170Z,61.30
2018-07-20T02:09:40.097Z,62.61
2018-07-20T02:10:40.088Z,62.41
2018-07-20T02:11:40.116Z,62.61
2018-07-20T02:12:41.693Z,62.30
2018-07-20T02:13:40.114Z,62.81
2018-07-20T02:14:40.042Z,62.61
2018-07-20T02:15:40.031Z,62.10
2018-07-20T02:16:40.026Z,61.50
2018-07-20T02:17:40.010Z,62.21
2018-07-20T02:18:40.056Z,61.70
2018-07-20T02:19:39.989Z,62.10
2018-07-20T02:20:39.978Z,62.41
2018-07-20T02:21:39.971Z,62.30
2018-07-20T02:22:39.959Z,62.01
2018-07-20T02:23:40.003Z,62.01
2018-07-20T02:24:39.934Z,62.30
2018-07-20T02:25:39.922Z,61.30
2018-07-20T02:26:39.914Z,62.41
2018-07-20T02:27:39.903Z,62.71
2018-07-20T02:28:39.956Z,62.41
2018-07-20T02:29:39.881Z,63.11
2018-07-20T02:30:39.870Z,62.10
2018-07-20T02:31:39.859Z,63.62
2018-07-20T02:32:39.848Z,63.01
2018-07-20T02:33:40.263Z,63.71
2018-07-20T02:34:39.829Z,63.21
2018-07-20T02:35:39.818Z,62.30
2018-07-20T02:36:39.806Z,62.61
2018-07-20T02:37:39.795Z,62.81
2018-07-20T02:38:39.845Z,63.45
2018-07-20T02:39:39.773Z,63.01
2018-07-20T02:40:39.762Z,63.01
2018-07-20T02:41:39.751Z,62.44
2018-07-20T02:42:39.743Z,62.91
2018-07-20T02:43:39.798Z,63.31
2018-07-20T02:44:39.723Z,63.51
2018-07-20T02:45:39.710Z,63.21
2018-07-20T02:46:39.702Z,62.71
2018-07-20T02:47:39.695Z,63.42
2018-07-20T02:48:39.737Z,62.71
2018-07-20T02:49:39.671Z,62.61
2018-07-20T02:50:39.659Z,63.92
2018-07-20T02:51:39.649Z,62.30
2018-07-20T02:52:39.638Z,63.51
2018-07-20T02:53:39.688Z,63.51
2018-07-20T02:54:40.190Z,63.82
2018-07-20T02:55:39.602Z,63.82
2018-07-20T02:56:39.590Z,63.01
2018-07-20T02:57:39.587Z,62.30
2018-07-20T02:58:39.635Z,63.85
2018-07-20T02:59:39.575Z,63.04
2018-07-20T03:00:39.554Z,63.14
2018-07-20T03:01:39.540Z,63.75
2018-07-20T03:02:39.533Z,63.95
2018-07-20T03:03:39.588Z,62.54
2018-07-20T03:04:39.507Z,63.65
2018-07-20T03:05:39.498Z,63.75
2018-07-20T03:06:39.485Z,62.94
2018-07-20T03:07:39.477Z,63.65
2018-07-20T03:08:39.527Z,63.45
2018-07-20T03:09:39.457Z,64.05
2018-07-20T03:10:39.444Z,63.85
2018-07-20T03:11:39.433Z,63.75
2018-07-20T03:12:39.426Z,64.15
2018-07-20T03:13:39.475Z,62.74
2018-07-20T03:14:39.402Z,63.85
2018-07-20T03:15:42.187Z,64.05
2018-07-20T03:16:39.389Z,63.75
2018-07-20T03:17:39.372Z,64.15
2018-07-20T03:18:39.421Z,64.15
2018-07-20T03:19:39.350Z,64.15
2018-07-20T03:20:39.342Z,64.35
2018-07-20T03:21:39.325Z,64.75
2018-07-20T03:22:39.314Z,64.05
2018-07-20T03:23:39.376Z,63.95
2018-07-20T03:24:39.297Z,63.54
2018-07-20T03:25:39.283Z,64.07
2018-07-20T03:26:39.277Z,63.98
2018-07-20T03:27:39.264Z,64.07
2018-07-20T03:28:39.327Z,63.67
2018-07-20T03:29:39.241Z,64.05
2018-07-20T03:30:47.745Z,65.06
2018-07-20T03:31:47.427Z,64.15
2018-07-20T03:32:39.290Z,63.95
2018-07-20T03:33:39.200Z,64.35
2018-07-20T03:34:39.247Z,65.26
2018-07-20T03:35:39.178Z,65.49
2018-07-20T03:36:39.170Z,64.69
2018-07-20T03:37:39.158Z,64.58
2018-07-20T03:38:47.285Z,65.29
2018-07-20T03:39:47.230Z,65.29
2018-07-20T03:40:39.123Z,64.58
2018-07-20T03:41:39.122Z,65.29
2018-07-20T03:42:39.100Z,65.39
2018-07-20T03:43:39.090Z,64.89
2018-07-20T03:44:39.143Z,65.29
2018-07-20T03:45:39.070Z,65.09
2018-07-20T03:46:39.058Z,65.39
2018-07-20T03:47:39.048Z,65.49
2018-07-20T03:48:39.040Z,65.39
2018-07-20T03:49:39.094Z,65.42
2018-07-20T03:50:39.015Z,65.19
2018-07-20T03:51:39.004Z,65.29
2018-07-20T03:52:38.995Z,65.22
2018-07-20T03:53:38.985Z,65.12
2018-07-20T03:54:39.037Z,65.39
2018-07-20T03:55:39.813Z,64.58
2018-07-20T03:56:38.951Z,65.22
2018-07-20T03:57:38.940Z,65.52
2018-07-20T03:58:38.945Z,64.07
2018-07-20T03:59:38.981Z,64.61
2018-07-20T04:00:39.816Z,65.09
2018-07-20T04:01:38.899Z,64.98
2018-07-20T04:02:38.888Z,65.29
2018-07-20T04:03:38.873Z,65.19
2018-07-20T04:04:38.929Z,65.29
2018-07-20T04:05:38.854Z,65.39
2018-07-20T04:06:38.846Z,65.39
2018-07-20T04:07:38.832Z,65.49
2018-07-20T04:08:38.821Z,65.59
2018-07-20T04:09:38.873Z,65.69
2018-07-20T04:10:38.802Z,65.29
2018-07-20T04:11:38.793Z,65.39
2018-07-20T04:12:38.782Z,65.39
2018-07-20T04:13:39.313Z,65.19
2018-07-20T04:14:38.823Z,65.39
2018-07-20T04:15:38.749Z,65.39
2018-07-20T04:16:38.737Z,65.49
2018-07-20T04:17:38.729Z,65.29
2018-07-20T04:18:38.715Z,64.18
2018-07-20T04:19:38.771Z,64.28
2018-07-20T04:20:38.696Z,65.39
2018-07-20T04:21:39.310Z,65.39
2018-07-20T04:22:38.674Z,65.39
2018-07-20T04:23:38.668Z,64.28
2018-07-20T04:24:38.718Z,63.87
2018-07-20T04:25:38.641Z,63.87
2018-07-20T04:26:38.632Z,64.07
2018-07-20T04:27:38.621Z,65.49
2018-07-20T04:28:38.610Z,65.29
2018-07-20T04:29:38.657Z,65.39
2018-07-20T04:30:38.588Z,64.69
2018-07-20T04:31:38.575Z,64.89
2018-07-20T04:32:38.566Z,65.19
2018-07-20T04:33:38.557Z,65.09
2018-07-20T04:34:38.605Z,65.49
2018-07-20T04:35:38.536Z,65.49
2018-07-20T04:36:38.534Z,65.49
2018-07-20T04:37:38.513Z,65.09
2018-07-20T04:38:38.542Z,64.58
2018-07-20T04:39:38.552Z,65.49
2018-07-20T04:40:38.480Z,65.19
2018-07-20T04:41:38.472Z,64.18
2018-07-20T04:42:39.311Z,63.67
2018-07-20T04:43:38.447Z,64.89
2018-07-20T04:44:38.504Z,65.79
2018-07-20T04:45:38.425Z,64.07
2018-07-20T04:46:38.416Z,65.29
2018-07-20T04:47:38.416Z,65.79
2018-07-20T04:48:38.391Z,66.09
2018-07-20T04:49:38.439Z,65.79
2018-07-20T04:50:38.373Z,65.69
2018-07-20T04:51:38.358Z,65.99
2018-07-20T04:52:38.350Z,65.69
2018-07-20T04:53:38.339Z,64.69
2018-07-20T04:54:38.386Z,65.49
2018-07-20T04:55:38.317Z,66.06
2018-07-20T04:56:38.306Z,64.69
2018-07-20T04:57:38.292Z,66.06
2018-07-20T04:58:38.315Z,65.76
2018-07-20T04:59:38.333Z,66.67
2018-07-20T05:00:38.263Z,65.16
2018-07-20T05:01:38.260Z,65.46
2018-07-20T05:02:38.239Z,64.15
2018-07-20T05:03:38.872Z,66.16
2018-07-20T05:04:38.276Z,63.45
2018-07-20T05:05:38.206Z,65.76
2018-07-20T05:06:38.198Z,65.96
2018-07-20T05:07:38.195Z,65.86
2018-07-20T05:08:38.176Z,66.16
2018-07-20T05:09:38.241Z,66.47
2018-07-20T05:10:38.154Z,66.16
2018-07-20T05:11:38.143Z,64.15
2018-07-20T05:12:38.132Z,65.26
2018-07-20T05:13:38.121Z,66.77
2018-07-20T05:14:38.107Z,65.76
2018-07-20T05:15:38.154Z,66.97
2018-07-20T05:16:38.090Z,66.43
2018-07-20T05:17:38.076Z,66.67
2018-07-20T05:18:38.071Z,66.74
2018-07-20T05:19:38.054Z,65.62
2018-07-20T05:20:38.133Z,65.73
2018-07-20T05:21:38.035Z,65.73
2018-07-20T05:22:38.037Z,65.83
2018-07-20T05:23:38.013Z,66.83
2018-07-20T05:24:38.808Z,65.42
2018-07-20T05:25:38.062Z,66.13
2018-07-20T05:26:37.977Z,65.53
2018-07-20T05:27:37.966Z,63.89
2018-07-20T05:28:37.963Z,65.80
2018-07-20T05:29:37.949Z,65.50
2018-07-20T05:30:37.997Z,65.90
2018-07-20T05:31:37.924Z,63.76
2018-07-20T05:32:37.963Z,63.15
2018-07-20T05:33:37.902Z,63.65
2018-07-20T05:34:37.902Z,64.96
2018-07-20T05:35:37.944Z,62.45
2018-07-20T05:36:37.872Z,62.62
2018-07-20T05:37:37.861Z,62.42
2018-07-20T05:38:37.850Z,63.82
2018-07-20T05:39:37.841Z,62.42
2018-07-20T05:40:37.886Z,63.73
2018-07-20T05:41:37.814Z,63.53
2018-07-20T05:42:37.806Z,63.42
2018-07-20T05:43:37.792Z,64.03
2018-07-20T05:44:37.786Z,64.23
2018-07-20T05:45:38.380Z,63.42
2018-07-20T05:46:37.761Z,63.82
2018-07-20T05:47:37.771Z,62.12
2018-07-20T05:48:37.739Z,64.13
2018-07-20T05:49:37.728Z,63.90
2018-07-20T05:50:37.780Z,63.93
2018-07-20T05:51:37.711Z,61.01
2018-07-20T05:52:37.698Z,63.22
2018-07-20T05:53:37.687Z,61.31
2018-07-20T05:54:38.308Z,63.73
2018-07-20T05:55:37.726Z,61.82
2018-07-20T05:56:37.653Z,63.09
2018-07-20T05:57:37.645Z,61.99
2018-07-20T05:58:37.634Z,62.08
2018-07-20T05:59:37.623Z,62.08
2018-07-20T06:00:37.675Z,61.49
2018-07-20T06:01:37.601Z,59.88
2018-07-20T06:02:37.590Z,61.96
2018-07-20T06:03:37.624Z,61.25
2018-07-20T06:04:37.572Z,60.65
2018-07-20T06:05:37.683Z,61.05
2018-07-20T06:06:38.308Z,61.43
2018-07-20T06:07:37.538Z,60.02
2018-07-20T06:08:37.542Z,61.52
2018-07-20T06:09:37.512Z,61.72
2018-07-20T06:10:37.562Z,61.43
2018-07-20T06:11:37.490Z,60.10
2018-07-20T06:12:37.489Z,60.80
2018-07-20T06:13:37.474Z,60.80
2018-07-20T06:14:37.462Z,61.30
2018-07-20T06:15:37.517Z,61.10
2018-07-20T06:16:37.438Z,60.89
2018-07-20T06:17:37.426Z,60.80
2018-07-20T06:18:37.417Z,60.86
2018-07-20T06:19:37.405Z,60.36
2018-07-20T06:20:37.457Z,60.66
2018-07-20T06:21:37.385Z,60.16
2018-07-20T06:22:37.375Z,58.73
2018-07-20T06:23:37.378Z,59.53
2018-07-20T06:24:37.362Z,60.14
2018-07-20T06:25:37.412Z,56.73
2018-07-20T06:26:37.345Z,57.56
2018-07-20T06:27:38.310Z,57.43
2018-07-20T06:28:37.308Z,57.03
2018-07-20T06:29:37.318Z,57.13
2018-07-20T06:30:37.352Z,55.13
2018-07-20T06:31:37.292Z,55.22
2018-07-20T06:32:37.268Z,55.73
2018-07-20T06:33:37.263Z,55.30
2018-07-20T06:34:37.257Z,55.10
2018-07-20T06:35:37.307Z,55.30
2018-07-20T06:36:37.226Z,54.97
2018-07-20T06:37:37.218Z,54.47
2018-07-20T06:38:37.205Z,54.97
2018-07-20T06:39:37.193Z,54.05
2018-07-20T06:40:37.306Z,54.94
2018-07-20T06:41:37.173Z,54.85
2018-07-20T06:42:37.177Z,53.24
2018-07-20T06:43:37.153Z,54.12
2018-07-20T06:44:37.141Z,53.52
2018-07-20T06:45:37.189Z,54.62
2018-07-20T06:46:37.171Z,53.12
2018-07-20T06:47:37.105Z,55.29
2018-07-20T06:48:37.802Z,54.69
2018-07-20T06:49:37.102Z,55.19
2018-07-20T06:50:37.149Z,54.90
2018-07-20T06:51:37.801Z,55.09
2018-07-20T06:52:37.055Z,54.49
2018-07-20T06:53:37.044Z,55.09
2018-07-20T06:54:37.049Z,55.07
2018-07-20T06:55:37.019Z,55.36
2018-07-20T06:56:37.075Z,55.34
2018-07-20T06:57:37.000Z,54.74
2018-07-20T06:58:36.987Z,54.11
2018-07-20T06:59:36.978Z,52.64
2018-07-20T07:00:36.968Z,51.62
2018-07-20T07:01:37.018Z,52.32
2018-07-20T07:02:36.949Z,51.92
2018-07-20T07:03:37.809Z,51.40
2018-07-20T07:04:36.928Z,51.37
2018-07-20T07:05:36.914Z,51.07
2018-07-20T07:06:36.965Z,51.54
2018-07-20T07:07:36.897Z,51.42
2018-07-20T07:08:36.882Z,51.12
2018-07-20T07:09:37.804Z,50.90
2018-07-20T07:10:36.862Z,51.10
2018-07-20T07:11:36.911Z,49.80
2018-07-20T07:12:36.847Z,49.98
2018-07-20T07:13:36.828Z,49.78
2018-07-20T07:14:36.818Z,49.28
2018-07-20T07:15:36.828Z,49.46
2018-07-20T07:16:36.857Z,47.77
2018-07-20T07:17:36.785Z,46.75
2018-07-20T07:18:36.779Z,46.55
2018-07-20T07:19:36.765Z,46.45
2018-07-20T07:20:36.764Z,46.83
2018-07-20T07:21:36.804Z,46.03
2018-07-20T07:22:36.734Z,46.03
2018-07-20T07:23:44.875Z,46.03
2018-07-20T07:24:44.880Z,45.43
2018-07-20T07:25:44.797Z,46.05
2018-07-20T07:26:44.874Z,46.65
2018-07-20T07:27:36.700Z,47.14
2018-07-20T07:28:36.673Z,46.55
2018-07-20T07:29:36.693Z,46.65
2018-07-20T07:30:36.665Z,46.62
2018-07-20T07:31:44.802Z,46.13
2018-07-20T07:32:45.258Z,45.33
2018-07-20T07:33:44.162Z,45.61
2018-07-20T07:34:44.758Z,45.11
2018-07-20T07:35:36.615Z,44.79
2018-07-20T07:36:44.180Z,45.49
2018-07-20T07:37:36.584Z,45.49
2018-07-20T07:38:36.571Z,45.07
2018-07-20T07:39:36.562Z,44.25
2018-07-20T07:40:36.553Z,45.15
2018-07-20T07:41:36.604Z,44.35
2018-07-20T07:42:36.540Z,43.64
2018-07-20T07:43:36.518Z,42.45
2018-07-20T07:44:36.513Z,42.92
2018-07-20T07:45:36.496Z,42.52
2018-07-20T07:46:36.671Z,42.60
2018-07-20T07:47:36.474Z,42.50
2018-07-20T07:48:36.466Z,42.58
2018-07-20T07:49:36.466Z,41.99
2018-07-20T07:50:36.462Z,41.20
2018-07-20T07:51:36.502Z,41.97
2018-07-20T07:52:36.429Z,40.76
2018-07-20T07:53:36.419Z,40.86
2018-07-20T07:54:36.405Z,40.96
2018-07-20T07:55:36.421Z,41.75
2018-07-20T07:56:36.465Z,41.46
2018-07-20T07:57:36.377Z,41.85
2018-07-20T07:58:36.371Z,41.97
2018-07-20T07:59:36.361Z,42.46
2018-07-20T08:00:36.349Z,42.86
2018-07-20T08:01:36.399Z,42.66
2018-07-20T08:02:36.338Z,43.28
2018-07-20T08:03:36.339Z,43.87
2018-07-20T08:04:36.308Z,43.57
2018-07-20T08:05:36.300Z,43.57
2018-07-20T08:06:36.349Z,43.48
2018-07-20T08:07:37.104Z,43.57
2018-07-20T08:08:36.266Z,43.16
2018-07-20T08:09:36.272Z,42.46
2018-07-20T08:10:36.249Z,42.05
2018-07-20T08:11:36.302Z,41.83
2018-07-20T08:12:36.228Z,40.70
2018-07-20T08:13:36.222Z,40.31
2018-07-20T08:14:36.209Z,40.07
2018-07-20T08:15:36.198Z,39.56
2018-07-20T08:16:36.255Z,38.75
2018-07-20T08:17:36.178Z,38.64
2018-07-20T08:18:36.172Z,38.04
2018-07-20T08:19:36.161Z,38.02
2018-07-20T08:20:36.150Z,38.02
2018-07-20T08:21:36.203Z,37.22
2018-07-20T08:22:36.141Z,38.30
2018-07-20T08:23:36.124Z,37.40
2018-07-20T08:24:36.113Z,37.40
2018-07-20T08:25:36.107Z,36.80
2018-07-20T08:26:36.158Z,36.90
2018-07-20T08:27:36.083Z,37.10
2018-07-20T08:28:36.604Z,36.40
2018-07-20T08:29:36.070Z,36.20
2018-07-20T08:30:36.055Z,37.38
2018-07-20T08:31:36.130Z,35.80
2018-07-20T08:32:36.036Z,35.90
2018-07-20T08:33:36.032Z,35.80
2018-07-20T08:34:36.019Z,35.78
2018-07-20T08:35:36.013Z,36.18
2018-07-20T08:36:35.999Z,34.80
2018-07-20T08:37:36.052Z,36.28
2018-07-20T08:38:35.983Z,35.88
2018-07-20T08:39:35.976Z,35.59
2018-07-20T08:40:35.963Z,36.36
2018-07-20T08:41:35.957Z,35.77
2018-07-20T08:42:36.008Z,34.87
2018-07-20T08:43:35.940Z,34.87
2018-07-20T08:44:35.930Z,34.46
2018-07-20T08:45:35.922Z,33.18
2018-07-20T08:46:35.973Z,33.65
2018-07-20T08:47:35.976Z,34.23
2018-07-20T08:48:35.891Z,33.34
2018-07-20T08:49:36.603Z,34.31
2018-07-20T08:50:35.877Z,33.14
2018-07-20T08:51:35.868Z,33.51
2018-07-20T08:52:35.918Z,32.81
2018-07-20T08:53:35.849Z,33.69
2018-07-20T08:54:35.838Z,32.50
2018-07-20T08:55:35.829Z,33.09
2018-07-20T08:56:35.821Z,32.48
2018-07-20T08:57:35.876Z,31.51
2018-07-20T08:58:35.808Z,31.10
2018-07-20T08:59:35.796Z,31.59
2018-07-20T09:00:35.785Z,31.68
2018-07-20T09:01:35.806Z,31.49
2018-07-20T09:02:35.835Z,31.49
2018-07-20T09:03:35.806Z,31.78
2018-07-20T09:04:35.754Z,31.38
2018-07-20T09:05:35.756Z,30.79
2018-07-20T09:06:35.743Z,31.57
2018-07-20T09:07:35.803Z,31.08
2018-07-20T09:08:35.720Z,31.26
2018-07-20T09:09:35.712Z,30.68
2018-07-20T09:10:36.605Z,29.88
2018-07-20T09:11:35.696Z,29.90
2018-07-20T09:12:35.758Z,30.66
2018-07-20T09:13:35.712Z,29.69
2018-07-20T09:14:35.670Z,29.79
2018-07-20T09:15:35.664Z,29.88
2018-07-20T09:16:35.656Z,29.08
2018-07-20T09:17:35.712Z,29.00
2018-07-20T09:18:35.639Z,29.69
2018-07-20T09:19:35.631Z,30.37
2018-07-20T09:20:35.632Z,29.67
2018-07-20T09:21:35.617Z,29.66
2018-07-20T09:22:35.672Z,29.15
2018-07-20T09:23:35.603Z,28.94
2018-07-20T09:24:35.591Z,28.83
2018-07-20T09:25:35.584Z,28.44
2018-07-20T09:26:35.575Z,27.56
2018-07-20T09:27:35.632Z,27.36
2018-07-20T09:28:35.561Z,27.25
2018-07-20T09:29:35.552Z,27.43
2018-07-20T09:30:35.550Z,27.72
2018-07-20T09:31:36.098Z,27.32
2018-07-20T09:32:35.588Z,27.12
2018-07-20T09:33:35.521Z,26.93
2018-07-20T09:34:35.513Z,26.83
2018-07-20T09:35:35.507Z,26.64
2018-07-20T09:36:35.496Z,26.82
2018-07-20T09:37:35.551Z,27.11
2018-07-20T09:38:35.482Z,26.90
2018-07-20T09:39:35.474Z,26.42
2018-07-20T09:40:35.471Z,26.40
2018-07-20T09:41:35.460Z,25.34
2018-07-20T09:42:35.513Z,25.62
2018-07-20T09:43:35.445Z,26.29
2018-07-20T09:44:35.442Z,25.31
2018-07-20T09:45:35.434Z,24.63
2018-07-20T09:46:35.426Z,25.99
2018-07-20T09:47:35.475Z,25.40
2018-07-20T09:48:35.409Z,25.20
2018-07-20T09:49:35.400Z,25.08
2018-07-20T09:50:35.394Z,24.21
2018-07-20T09:51:35.386Z,24.21
2018-07-20T09:52:35.669Z,23.33
2018-07-20T09:53:35.375Z,24.39
2018-07-20T09:54:35.367Z,23.81
2018-07-20T09:55:35.358Z,23.99
2018-07-20T09:56:35.352Z,23.99
2018-07-20T09:57:35.407Z,23.50
2018-07-20T09:58:35.412Z,23.50
2018-07-20T09:59:35.392Z,23.11
2018-07-20T10:00:35.324Z,23.19
2018-07-20T10:01:35.315Z,23.98
2018-07-20T10:02:35.376Z,23.97
2018-07-20T10:03:35.304Z,23.29
2018-07-20T10:04:35.295Z,22.80
2018-07-20T10:05:35.289Z,23.18
2018-07-20T10:06:35.281Z,22.70
2018-07-20T10:07:35.340Z,22.59
2018-07-20T10:08:35.267Z,22.59
2018-07-20T10:09:35.264Z,21.71
2018-07-20T10:10:35.253Z,21.71
2018-07-20T10:11:35.275Z,21.99
2018-07-20T10:12:35.363Z,21.89
2018-07-20T10:13:36.087Z,21.89
2018-07-20T10:14:35.227Z,22.36
2018-07-20T10:15:35.222Z,21.79
2018-07-20T10:16:35.216Z,21.89
2018-07-20T10:17:35.290Z,22.09
2018-07-20T10:18:35.202Z,21.59
2018-07-20T10:19:35.220Z,21.31
2018-07-20T10:20:35.190Z,22.06
2018-07-20T10:21:35.185Z,20.91
2018-07-20T10:22:35.176Z,21.48
2018-07-20T10:23:35.229Z,21.96
2018-07-20T10:24:35.161Z,20.89
2018-07-20T10:25:35.207Z,20.50
2018-07-20T10:26:35.148Z,22.22
2018-07-20T10:27:35.141Z,20.11
2018-07-20T10:28:35.195Z,20.11
2018-07-20T10:29:35.128Z,20.58
2018-07-20T10:30:35.158Z,19.51
2018-07-20T10:31:35.117Z,19.79
2018-07-20T10:32:35.111Z,19.78
2018-07-20T10:33:35.166Z,20.17
2018-07-20T10:34:36.078Z,19.96
2018-07-20T10:35:35.094Z,20.05
2018-07-20T10:36:35.098Z,18.70
2018-07-20T10:37:35.080Z,19.37
2018-07-20T10:38:35.132Z,18.59
2018-07-20T10:39:35.067Z,18.40
2018-07-20T10:40:35.060Z,18.77
2018-07-20T10:41:35.057Z,19.06
2018-07-20T10:42:35.048Z,19.52
2018-07-20T10:43:35.104Z,17.90
2018-07-20T10:44:35.040Z,18.76
2018-07-20T10:45:35.033Z,18.39
2018-07-20T10:46:35.023Z,19.82
2018-07-20T10:47:35.017Z,18.69
2018-07-20T10:48:35.075Z,18.40
2018-07-20T10:49:35.027Z,18.02
2018-07-20T10:50:35.003Z,18.59
2018-07-20T10:51:34.996Z,18.31
2018-07-20T10:52:34.991Z,18.41
2018-07-20T10:53:35.044Z,18.60
2018-07-20T10:54:34.976Z,18.41
2018-07-20T10:55:35.567Z,19.07
2018-07-20T10:56:34.962Z,19.17
2018-07-20T10:57:34.963Z,18.20
2018-07-20T10:58:35.012Z,18.20
2018-07-20T10:59:34.948Z,18.19
2018-07-20T11:00:34.944Z,18.76
2018-07-20T11:01:35.039Z,18.56
2018-07-20T11:02:34.933Z,17.98
2018-07-20T11:03:34.988Z,18.16
2018-07-20T11:04:34.924Z,17.78
2018-07-20T11:05:34.916Z,18.25
2018-07-20T11:06:42.436Z,17.29
2018-07-20T11:07:34.905Z,17.68
2018-07-20T11:08:34.957Z,17.95
2018-07-20T11:09:34.900Z,17.29
2018-07-20T11:10:34.882Z,16.81
2018-07-20T11:11:34.877Z,17.66
2018-07-20T11:12:34.870Z,17.10
2018-07-20T11:13:34.968Z,17.27
2018-07-20T11:14:43.013Z,16.89
2018-07-20T11:15:34.850Z,16.89
2018-07-20T11:16:35.623Z,17.37
2018-07-20T11:17:34.845Z,17.08
2018-07-20T11:18:43.819Z,16.42
2018-07-20T11:19:34.828Z,17.55
2018-07-20T11:20:34.840Z,17.76
2018-07-20T11:21:34.819Z,17.57
2018-07-20T11:22:34.807Z,16.81
2018-07-20T11:23:34.866Z,17.76
2018-07-20T11:24:34.799Z,16.81
2018-07-20T11:25:34.793Z,17.27
2018-07-20T11:26:34.790Z,17.66
2018-07-20T11:27:34.777Z,16.88
2018-07-20T11:28:34.832Z,16.40
2018-07-20T11:29:34.767Z,16.30
2018-07-20T11:30:35.943Z,16.68
2018-07-20T11:31:34.758Z,17.27
2018-07-20T11:32:34.759Z,16.79
2018-07-20T11:33:34.806Z,16.42
2018-07-20T11:34:34.782Z,16.41
2018-07-20T11:35:34.733Z,16.61
2018-07-20T11:36:34.727Z,17.36
2018-07-20T11:37:34.738Z,16.42
2018-07-20T11:38:34.776Z,16.80
2018-07-20T11:39:34.707Z,17.08
2018-07-20T11:40:35.651Z,17.16
2018-07-20T11:41:34.717Z,17.05
2018-07-20T11:42:34.767Z,16.58
2018-07-20T11:43:36.097Z,16.86
2018-07-20T11:44:34.679Z,16.75
2018-07-20T11:45:34.675Z,16.85
2018-07-20T11:46:34.752Z,16.85
2018-07-20T11:47:34.667Z,16.46
2018-07-20T11:48:34.727Z,16.08
2018-07-20T11:49:34.650Z,16.27
2018-07-20T11:50:34.650Z,16.08
2018-07-20T11:51:34.650Z,16.25
2018-07-20T11:52:34.636Z,15.78
2018-07-20T11:53:34.701Z,15.50
2018-07-20T11:54:34.630Z,15.40
2018-07-20T11:55:34.624Z,15.88
2018-07-20T11:56:34.615Z,15.98
2018-07-20T11:57:34.615Z,15.22
2018-07-20T11:58:34.670Z,16.46
2018-07-20T11:59:34.598Z,15.33
2018-07-20T12:00:34.598Z,16.09
2018-07-20T12:01:35.138Z,16.09
2018-07-20T12:02:34.581Z,15.81
2018-07-20T12:03:34.641Z,16.00
2018-07-20T12:04:34.580Z,16.19
2018-07-20T12:05:34.572Z,15.52
2018-07-20T12:06:34.561Z,15.51
2018-07-20T12:07:34.557Z,15.89
2018-07-20T12:08:34.549Z,15.42
2018-07-20T12:09:34.604Z,15.52
2018-07-20T12:10:34.542Z,16.00
2018-07-20T12:11:34.535Z,15.90
2018-07-20T12:12:34.523Z,16.00
2018-07-20T12:13:34.531Z,16.00
2018-07-20T12:14:34.581Z,15.80
2018-07-20T12:15:34.506Z,15.90
2018-07-20T12:16:34.505Z,15.80
2018-07-20T12:17:34.500Z,16.47
2018-07-20T12:18:34.492Z,16.37
2018-07-20T12:19:34.555Z,16.55
2018-07-20T12:20:34.484Z,15.69
2018-07-20T12:21:34.481Z,16.36
2018-07-20T12:22:35.126Z,15.11
2018-07-20T12:23:34.484Z,15.50
2018-07-20T12:24:34.532Z,16.25
2018-07-20T12:25:34.451Z,16.06
2018-07-20T12:26:34.459Z,15.78
2018-07-20T12:27:34.439Z,16.06
2018-07-20T12:28:34.435Z,15.97
2018-07-20T12:29:34.498Z,15.87
2018-07-20T12:30:34.425Z,15.68
2018-07-20T12:31:34.418Z,15.39
2018-07-20T12:32:34.419Z,15.58
2018-07-20T12:33:34.408Z,15.96
2018-07-20T12:34:34.472Z,15.30
2018-07-20T12:35:34.399Z,15.77
2018-07-20T12:36:34.391Z,15.48
2018-07-20T12:37:34.388Z,15.86
2018-07-20T12:38:34.387Z,16.14
2018-07-20T12:39:34.442Z,14.62
2018-07-20T12:40:34.368Z,15.39
2018-07-20T12:41:34.368Z,14.72
2018-07-20T12:42:34.394Z,14.81
2018-07-20T12:43:35.116Z,15.86
2018-07-20T12:44:34.411Z,16.25
2018-07-20T12:45:42.485Z,15.11
2018-07-20T12:46:34.340Z,15.97
2018-07-20T12:47:34.336Z,15.50
2018-07-20T12:48:42.487Z,15.31
2018-07-20T12:49:43.499Z,16.27
2018-07-20T12:50:34.347Z,16.36
2018-07-20T12:51:42.435Z,15.60
2018-07-20T12:52:42.416Z,15.31